Terminal Aerodrome Forecast
Issued by NWS

Home | Current Version | Previous Version | Text Only | Print | Product List | Glossary On
Versions: 1 2 3 4 5 6 7 8 9 10 11 12 13 14 15 16 17 18 19
000
FTUS43 KPAH 201120
TAFOWB
TAF
KOWB 201120Z 2012/2112 19012G22KT P6SM SCT090 BKN250
     FM201500 20018G32KT P6SM SCT060 BKN200
     FM210000 18012G22KT P6SM BKN050
     FM210800 20012G22KT P6SM -SHRA BKN030
     FM211000 29011G21KT 5SM SHRA BR OVC015=

USA.gov is the U.S. government's official web portal to all federal, state and local government web resources and services.